Bookmark and Share
Track history (hours):
 

Agia Marina

Last reported at 2014-Apr-24 08:13 UTC. Time now 2014-Apr-24 11:22 UTC.
Position N 38°02' E 023°36'.

Length 59 m; draft 2.5 m.

Type: Cargo ship. MMSI: 237042500.

NotesDate/timePositionNaut miles runAvg speedWind from/ knotsBaromVisibWave heightAir tempDewpointWater temp
2014-Apr-24 08:13N 38°02' E 023°36'0 0.0
2014-Apr-24 04:30N 38°02' E 023°36'0 0.0
2014-Apr-24 03:32N 38°02' E 023°36'0 0.0
2014-Apr-24 02:26N 38°02' E 023°36'0 0.0
2014-Apr-23 23:11N 38°02' E 023°36'0 0.0
2014-Apr-23 02:33N 38°02' E 023°36'0 0.0
2014-Apr-22 22:15N 38°02' E 023°36'0 0.0
2014-Apr-22 21:24N 38°02' E 023°36'0 0.0
2014-Apr-22 20:32N 38°02' E 023°36'0 0.0
2014-Apr-22 16:30N 38°02' E 023°36'0 0.0
2014-Apr-22 10:25N 38°02' E 023°36'0 0.0
2014-Apr-22 07:31N 38°02' E 023°36'0 0.0
2014-Apr-22 06:08N 38°02' E 023°36'0 0.0
2014-Apr-22 02:16N 38°02' E 023°36'0 0.0
2014-Apr-21 21:26N 38°02' E 023°36'0 0.0
2014-Apr-21 09:28N 38°02' E 023°36'0 0.0
2014-Apr-21 08:33N 38°02' E 023°36'0 0.0
2014-Apr-21 06:16N 38°02' E 023°36'0 0.0
2014-Apr-21 05:18N 38°02' E 023°36'0 0.0
2014-Apr-21 01:30N 38°02' E 023°36'0 0.0
2014-Apr-20 23:11N 38°02' E 023°36'0 0.0
2014-Apr-20 22:33N 38°02' E 023°36'0 0.0
2014-Apr-20 19:21N 38°02' E 023°36'0 0.0
2014-Apr-20 05:05N 38°02' E 023°36'0 0.0
2014-Apr-20 03:13N 38°02' E 023°36'0 0.0
2014-Apr-20 02:09N 38°02' E 023°36'0 0.0
2014-Apr-19 22:05N 38°02' E 023°36'0 0.0
2014-Apr-19 20:23N 38°02' E 023°36'0 0.0
2014-Apr-18 02:15N 38°02' E 023°36'0 0.0
2014-Apr-18 01:33N 38°02' E 023°36'0 0.0
2014-Apr-18 00:33N 38°02' E 023°36'0 0.0
2014-Apr-17 23:31N 38°02' E 023°36'0 0.0
2014-Apr-17 22:17N 38°02' E 023°36'0 0.0
2014-Apr-17 21:28N 38°02' E 023°36'0 0.0
2014-Apr-17 20:33N 38°02' E 023°36'0 0.0
2014-Apr-17 19:33N 38°02' E 023°36'0 0.0
2014-Apr-17 18:33N 38°02' E 023°36'0 0.0
2014-Apr-17 16:14N 38°02' E 023°36'0 0.0
2014-Apr-17 15:20N 38°02' E 023°36'0 0.0
2014-Apr-16 20:03N 38°02' E 023°36'3 0.3
2014-Apr-16 10:33N 38°01' E 023°33'6 5.9
2014-Apr-16 09:32N 37°58' E 023°26'6 6.1
2014-Apr-16 08:33N 37°52' E 023°26'5 5.2
2014-Apr-16 07:33N 37°47' E 023°26'2 0.5
2014-Apr-16 04:11N 37°46' E 023°25'5 7.5
2014-Apr-16 03:32N 37°50' E 023°24'8 7.2
2014-Apr-16 02:25N 37°58' E 023°26'6 6.0
2014-Apr-16 01:25N 38°01' E 023°33'3 0.4
2014-Apr-15 18:11N 38°02' E 023°36'0 0.0
2014-Apr-15 17:09N 38°02' E 023°36'0 0.0
2014-Apr-15 16:21N 38°02' E 023°36'0 0.0
2014-Apr-15 15:05N 38°02' E 023°36'  

Dump ship's entire track history

sailing weather and tide predictions

Agia Marina — SX5375 — position and weather